Time;durP1;ratioP1;P1;durP2;ratioP2;P2;SDS_P1;SDS_P2;PMS_P1;PMS_P2;Temp;Humidity;BMP_temperature;BMP_pressure;BME280_temperature;BME280_humidity;BME280_pressure;Samples;Min_cycle;Max_cycle;Signal;HPM_P1;HPM_P2
2022/06/07 00:05:55;;;;;;;;;;;;;;;;;;12551029;28;19912;-82
2022/06/07 00:11:57;;;;;;;;;;;;;;;;;;12550990;28;19920;-82
2022/06/07 00:17:58;;;;;;;;;;;;;;;;;;12552099;28;19931;-82
2022/06/07 00:24:00;;;;;;;;;;;;;;;;;;12550701;28;19916;-82
2022/06/07 00:30:01;;;;;;;;;;;;;;;;;;12552472;28;19916;-81
2022/06/07 00:36:02;;;;;;;;;;;;;;;;;;12551118;28;19919;-82
2022/06/07 00:42:04;;;;;;;;;;;;;;;;;;12550705;28;19908;-82
2022/06/07 00:48:05;;;;;;;;;;;;;;;;;;12549663;28;19913;-82
2022/06/07 00:54:07;;;;;;;;;;;;;;;;;;12549776;28;19917;-81
2022/06/07 01:00:08;;;;;;;;;;;;;;;;;;12549658;28;19908;-82
2022/06/07 01:12:32;;;;;;;;;;;;;;;;;;12547911;28;20366;-82
2022/06/07 01:18:34;;;;;;;;;;;;;;;;;;12547923;28;20236;-82
2022/06/07 01:24:36;;;;;;;;;;;;;;;;;;12547531;28;19924;-82
2022/06/07 01:30:42;;;;;;;;;;;;;;;;;;12547740;28;19920;-81
2022/06/07 01:36:44;;;;;;;;;;;;;;;;;;12546717;28;19919;-82
2022/06/07 01:42:45;;;;;;;;;;;;;;;;;;12529848;28;19916;-82
2022/06/07 01:48:48;;;;;;;;;;;;;;;;;;12546747;28;19908;-81
2022/06/07 01:54:51;;;;;;;;;;;;;;;;;;12546261;28;19922;-82
2022/06/07 02:00:54;;;;;;;;;;;;;;;;;;12546226;28;19909;-82
2022/06/07 02:06:55;;;;;;;;;;;;;;;;;;12545690;28;19913;-81
2022/06/07 02:13:07;;;;;;;;;;;;;;;;;;12545652;28;19923;-81
2022/06/07 02:19:08;;;;;;;;;;;;;;;;;;12544920;28;20285;-81
2022/06/07 02:25:12;;;;;;;;;;;;;;;;;;12544494;28;19917;-81
2022/06/07 02:31:13;;;;;;;;;;;;;;;;;;12545678;28;19916;-82
2022/06/07 02:37:15;;;;;;;;;;;;;;;;;;12544977;28;19913;-82
2022/06/07 02:43:16;;;;;;;;;;;;;;;;;;12545698;28;20373;-82
2022/06/07 02:49:18;;;;;;;;;;;;;;;;;;12545526;28;19916;-82
2022/06/07 02:55:20;;;;;;;;;;;;;;;;;;12544440;28;19916;-83
2022/06/07 03:01:23;;;;;;;;;;;;;;;;;;12543985;28;19913;-83
2022/06/07 03:07:25;;;;;;;;;;;;;;;;;;12544073;28;19909;-82
2022/06/07 03:13:28;;;;;;;;;;;;;;;;;;12546549;28;19917;-82
2022/06/07 03:19:31;;;;;;;;;;;;;;;;;;12537135;28;19909;-82
2022/06/07 03:25:32;;;;;;;;;;;;;;;;;;12553258;28;19939;-82
2022/06/07 03:31:38;;;;;;;;;;;;;;;;;;12553007;28;19928;-82
2022/06/07 03:37:42;;;;;;;;;;;;;;;;;;12536233;28;19913;-82
2022/06/07 03:43:44;;;;;;;;;;;;;;;;;;12552550;28;19909;-82
2022/06/07 03:49:48;;;;;;;;;;;;;;;;;;12552056;28;19917;-82
2022/06/07 03:55:53;;;;;;;;;;;;;;;;;;12551875;28;19916;-82
2022/06/07 04:01:56;;;;;;;;;;;;;;;;;;12551214;28;19919;-83
2022/06/07 04:08:13;;;;;;;;;;;;;;;;;;12551120;28;19916;-82
2022/06/07 04:14:24;;;;;;;;;;;;;;;;;;12550594;28;19924;-82
2022/06/07 04:20:26;;;;;;;;;;;;;;;;;;12551378;28;19916;-81
2022/06/07 04:26:30;;;;;;;;;;;;;;;;;;12548991;28;19927;-81
2022/06/07 04:32:34;;;;;;;;;;;;;;;;;;12549805;28;20401;-81
2022/06/07 04:38:36;;;;;;;;;;;;;;;;;;12550279;28;19909;-82
2022/06/07 04:44:38;;;;;;;;;;;;;;;;;;12550853;28;20365;-81
2022/06/07 04:50:40;;;;;;;;;;;;;;;;;;12550883;28;19920;-81
2022/06/07 04:56:42;;;;;;;;;;;;;;;;;;12549208;28;19920;-81
2022/06/07 05:02:44;;;;;;;;;;;;;;;;;;12548413;28;19912;-81
2022/06/07 05:08:45;;;;;;;;;;;;;;;;;;12550069;28;19908;-81
2022/06/07 05:14:47;;;;;;;;;;;;;;;;;;12548822;28;20377;-81
2022/06/07 05:20:54;;;;;;;;;;;;;;;;;;12550752;28;20373;-81
2022/06/07 05:26:57;;;;;;;;;;;;;;;;;;12547436;28;19924;-81
2022/06/07 05:33:05;;;;;;;;;;;;;;;;;;12548276;28;19927;-84
2022/06/07 05:39:12;;;;;;;;;;;;;;;;;;12535929;28;19917;-86
2022/06/07 05:45:14;;;;;;;;;;;;;;;;;;12522936;28;20277;-86
2022/06/07 05:51:15;;;;;;;;;;;;;;;;;;12526282;28;19920;-86
2022/06/07 05:57:17;;;;;;;;;;;;;;;;;;12507769;28;19909;-85
2022/06/07 06:03:19;;;;;;;;;;;;;;;;;;12523093;28;19936;-83
2022/06/07 06:15:41;;;;;;;;;;;;;;;;;;12520653;28;19909;-84
2022/06/07 06:21:43;;;;;;;;;;;;;;;;;;12519827;28;19913;-82
2022/06/07 06:27:45;;;;;;;;;;;;;;;;;;12517439;28;19928;-79
2022/06/07 06:33:46;;;;;;;;;;;;;;;;;;12511603;28;19921;-78
2022/06/07 06:39:48;;;;;;;;;;;;;;;;;;12527728;28;19924;-81
2022/06/07 06:45:50;;;;;;;;;;;;;;;;;;12503677;28;19947;-83
2022/06/07 06:51:55;;;;;;;;;;;;;;;;;;12536116;28;19924;-82
2022/06/07 06:58:03;;;;;;;;;;;;;;;;;;12513549;28;19971;-83
2022/06/07 07:04:04;;;;;;;;;;;;;;;;;;12515167;28;19913;-84
2022/06/07 07:10:05;;;;;;;;;;;;;;;;;;12519945;28;19927;-85
2022/06/07 07:16:07;;;;;;;;;;;;;;;;;;12514951;28;19908;-84
2022/06/07 07:22:08;;;;;;;;;;;;;;;;;;12534524;28;19916;-85
2022/06/07 07:28:11;;;;;;;;;;;;;;;;;;12525028;28;19940;-87
2022/06/07 07:34:14;;;;;;;;;;;;;;;;;;12516864;28;19921;-84
2022/06/07 07:40:18;;;;;;;;;;;;;;;;;;12517690;28;19919;-83
2022/06/07 07:46:22;;;;;;;;;;;;;;;;;;12514355;28;19912;-83
2022/06/07 07:52:24;;;;;;;;;;;;;;;;;;12523149;28;19917;-84
2022/06/07 07:58:33;;;;;;;;;;;;;;;;;;12519168;28;19908;-85
2022/06/07 08:04:35;;;;;;;;;;;;;;;;;;12524354;28;19927;-83
2022/06/07 08:10:38;;;;;;;;;;;;;;;;;;12505483;28;19928;-84
2022/06/07 08:16:40;;;;;;;;;;;;;;;;;;12543133;28;19912;-88
2022/06/07 08:22:42;;;;;;;;;;;;;;;;;;12546347;28;19915;-82
2022/06/07 08:28:44;;;;;;;;;;;;;;;;;;12523170;28;19916;-85
2022/06/07 08:41:06;;;;;;;;;;;;;;;;;;12530078;28;19912;-86
2022/06/07 08:47:08;;;;;;;;;;;;;;;;;;12538766;28;19908;-85
2022/06/07 08:53:10;;;;;;;;;;;;;;;;;;12536327;28;19940;-87
2022/06/07 08:59:11;;;;;;;;;;;;;;;;;;12520127;28;19916;-82
2022/06/07 09:05:13;;;;;;;;;;;;;;;;;;12508149;28;19950;-89
2022/06/07 09:17:35;;;;;;;;;;;;;;;;;;12531694;28;19983;-84
2022/06/07 09:23:36;;;;;;;;;;;;;;;;;;12533938;28;19917;-83
2022/06/07 09:29:38;;;;;;;;;;;;;;;;;;12521945;28;19924;-85
2022/06/07 09:35:39;;;;;;;;;;;;;;;;;;12531466;28;20352;-84
2022/06/07 09:41:41;;;;;;;;;;;;;;;;;;12533616;28;19917;-83
2022/06/07 09:47:43;;;;;;;;;;;;;;;;;;12510719;28;20266;-83
2022/06/07 09:53:44;;;;;;;;;;;;;;;;;;12536241;28;19948;-84
2022/06/07 09:59:45;;;;;;;;;;;;;;;;;;12537610;28;19916;-83
2022/06/07 10:05:47;;;;;;;;;;;;;;;;;;12536988;28;19913;-85
2022/06/07 10:11:48;;;;;;;;;;;;;;;;;;12521780;28;20130;-85
2022/06/07 10:17:50;;;;;;;;;;;;;;;;;;12533817;28;19920;-82
2022/06/07 10:23:51;;;;;;;;;;;;;;;;;;12551225;28;19916;-84
2022/06/07 10:29:53;;;;;;;;;;;;;;;;;;12577120;28;19976;-82
2022/06/07 10:35:54;;;;;;;;;;;;;;;;;;12580397;28;19908;-86
2022/06/07 10:41:56;;;;;;;;;;;;;;;;;;12571467;28;20286;-85
2022/06/07 10:47:58;;;;;;;;;;;;;;;;;;12557635;28;19913;-86
2022/06/07 10:54:00;;;;;;;;;;;;;;;;;;12520315;28;20277;-86
2022/06/07 11:00:01;;;;;;;;;;;;;;;;;;12538324;28;19921;-86
2022/06/07 11:12:23;;;;;;;;;;;;;;;;;;12560754;22;19920;-85
2022/06/07 11:18:24;;;;;;;;;;;;;;;;;;12640529;28;19908;-84
2022/06/07 11:24:26;;;;;;;;;;;;;;;;;;12605934;28;19915;-87
2022/06/07 11:30:28;;;;;;;;;;;;;;;;;;12621422;28;19923;-87
2022/06/07 11:36:30;;;;;;;;;;;;;;;;;;12645779;28;20279;-86
2022/06/07 11:42:33;;;;;;;;;;;;;;;;;;12618565;28;19921;-86
2022/06/07 11:48:34;;;;;;;;;;;;;;;;;;12638951;28;20367;-86
2022/06/07 11:54:36;;;;;;;;;;;;;;;;;;12637131;28;19916;-87
2022/06/07 12:00:38;;;;;;;;;;;;;;;;;;12623899;28;19908;-86
2022/06/07 12:06:40;;;;;;;;;;;;;;;;;;12636230;28;19915;-85
2022/06/07 12:12:41;;;;;;;;;;;;;;;;;;12635684;28;19920;-82
2022/06/07 12:18:44;;;;;;;;;;;;;;;;;;12652642;28;20296;-82
2022/06/07 12:24:45;;;;;;;;;;;;;;;;;;12652903;28;19908;-82
2022/06/07 12:30:47;;;;;;;;;;;;;;;;;;12652872;28;19916;-82
2022/06/07 12:36:49;;;;;;;;;;;;;;;;;;12636034;28;19912;-82
2022/06/07 12:42:51;;;;;;;;;;;;;;;;;;12633782;28;19912;-82
2022/06/07 12:48:52;;;;;;;;;;;;;;;;;;12632801;28;19923;-82
2022/06/07 12:54:54;;;;;;;;;;;;;;;;;;12650835;28;19946;-83
2022/06/07 13:00:55;;;;;;;;;;;;;;;;;;12632830;28;19915;-81
2022/06/07 13:06:57;;;;;;;;;;;;;;;;;;12633190;28;19915;-82
2022/06/07 13:12:59;;;;;;;;;;;;;;;;;;12632499;28;20377;-82
2022/06/07 13:19:00;;;;;;;;;;;;;;;;;;12631693;28;19915;-82
2022/06/07 13:25:03;;;;;;;;;;;;;;;;;;12649046;28;19908;-82
2022/06/07 13:31:05;;;;;;;;;;;;;;;;;;12650474;28;19916;-83
2022/06/07 13:37:07;;;;;;;;;;;;;;;;;;12649925;28;20388;-83
2022/06/07 13:43:08;;;;;;;;;;;;;;;;;;12649608;28;19912;-82
2022/06/07 13:55:31;;;;;;;;;;;;;;;;;;12647246;28;19923;-82
2022/06/07 14:01:33;;;;;;;;;;;;;;;;;;12629444;28;19915;-82
2022/06/07 14:07:35;;;;;;;;;;;;;;;;;;12646394;28;19908;-83
2022/06/07 14:13:37;;;;;;;;;;;;;;;;;;12645714;28;19924;-79
2022/06/07 14:19:38;;;;;;;;;;;;;;;;;;12628264;28;19994;-78
2022/06/07 14:25:40;;;;;;;;;;;;;;;;;;12627523;28;19908;-79
2022/06/07 14:31:42;;;;;;;;;;;;;;;;;;12645072;28;20292;-78
2022/06/07 14:37:44;;;;;;;;;;;;;;;;;;12643764;28;19908;-79
2022/06/07 14:43:46;;;;;;;;;;;;;;;;;;12627462;28;20298;-78
2022/06/07 14:49:48;;;;;;;;;;;;;;;;;;12645113;28;19914;-78
2022/06/07 14:55:50;;;;;;;;;;;;;;;;;;12643216;28;19916;-79
2022/06/07 15:01:52;;;;;;;;;;;;;;;;;;12643307;28;20372;-78
2022/06/07 15:07:54;;;;;;;;;;;;;;;;;;12643260;28;19908;-79
2022/06/07 15:13:55;;;;;;;;;;;;;;;;;;12627079;28;19920;-78
2022/06/07 15:19:57;;;;;;;;;;;;;;;;;;12643915;28;19919;-78
2022/06/07 15:25:59;;;;;;;;;;;;;;;;;;12642775;28;19908;-78
2022/06/07 15:32:00;;;;;;;;;;;;;;;;;;12625788;28;20406;-78
2022/06/07 15:38:02;;;;;;;;;;;;;;;;;;12643626;28;19907;-79
2022/06/07 15:44:03;;;;;;;;;;;;;;;;;;12626214;28;19912;-80
2022/06/07 15:50:05;;;;;;;;;;;;;;;;;;12641707;28;19916;-79
2022/06/07 15:56:07;;;;;;;;;;;;;;;;;;12641541;28;19912;-78
2022/06/07 16:02:09;;;;;;;;;;;;;;;;;;12624963;28;19908;-78
2022/06/07 16:08:11;;;;;;;;;;;;;;;;;;12624800;28;19915;-79
2022/06/07 16:14:13;;;;;;;;;;;;;;;;;;12643310;28;19931;-78
2022/06/07 16:20:15;;;;;;;;;;;;;;;;;;12645824;28;19915;-79
2022/06/07 16:26:16;;;;;;;;;;;;;;;;;;12633359;28;19908;-78
2022/06/07 16:38:41;;;;;;;;;;;;;;;;;;12632996;28;19912;-78
2022/06/07 16:44:42;;;;;;;;;;;;;;;;;;12651672;28;19935;-79
2022/06/07 16:50:44;;;;;;;;;;;;;;;;;;12650132;28;20380;-77
2022/06/07 16:56:45;;;;;;;;;;;;;;;;;;12649631;28;20139;-78
2022/06/07 17:02:47;;;;;;;;;;;;;;;;;;12649585;28;19915;-78
2022/06/07 17:08:48;;;;;;;;;;;;;;;;;;12649557;28;19908;-78
2022/06/07 17:14:50;;;;;;;;;;;;;;;;;;12648701;28;19920;-77
2022/06/07 17:20:52;;;;;;;;;;;;;;;;;;12648766;28;20381;-79
2022/06/07 17:26:54;;;;;;;;;;;;;;;;;;12649224;28;19915;-79
2022/06/07 17:32:55;;;;;;;;;;;;;;;;;;12629160;28;19916;-78
2022/06/07 17:38:57;;;;;;;;;;;;;;;;;;12647599;28;19908;-79
2022/06/07 17:44:58;;;;;;;;;;;;;;;;;;12648636;28;19935;-79
2022/06/07 17:51:00;;;;;;;;;;;;;;;;;;12647503;28;19926;-78
2022/06/07 17:57:01;;;;;;;;;;;;;;;;;;12647027;28;19908;-79
2022/06/07 18:03:03;;;;;;;;;;;;;;;;;;12646958;28;19931;-79
2022/06/07 18:09:04;;;;;;;;;;;;;;;;;;12629065;28;19908;-78
2022/06/07 18:15:06;;;;;;;;;;;;;;;;;;12645060;28;20284;-79
2022/06/07 18:21:08;;;;;;;;;;;;;;;;;;12627864;28;19908;-79
2022/06/07 18:27:09;;;;;;;;;;;;;;;;;;12644562;28;19919;-79
2022/06/07 18:33:11;;;;;;;;;;;;;;;;;;12644244;28;19916;-79
2022/06/07 18:39:12;;;;;;;;;;;;;;;;;;12643718;28;19923;-78
2022/06/07 18:45:14;;;;;;;;;;;;;;;;;;12645173;28;19912;-79
2022/06/07 18:51:15;;;;;;;;;;;;;;;;;;12644939;28;19915;-78
2022/06/07 18:57:17;;;;;;;;;;;;;;;;;;12644592;28;20295;-79
2022/06/07 19:03:20;;;;;;;;;;;;;;;;;;12644486;28;19908;-79
2022/06/07 19:09:22;;;;;;;;;;;;;;;;;;12644264;28;20279;-78
2022/06/07 19:15:24;;;;;;;;;;;;;;;;;;12644368;28;19927;-78
2022/06/07 19:21:26;;;;;;;;;;;;;;;;;;12642804;28;20379;-78
2022/06/07 19:27:28;;;;;;;;;;;;;;;;;;12644507;28;19915;-78
2022/06/07 19:33:30;;;;;;;;;;;;;;;;;;12643057;28;20380;-78
2022/06/07 19:39:32;;;;;;;;;;;;;;;;;;12643682;28;19908;-78
2022/06/07 19:45:36;;;;;;;;;;;;;;;;;;12625997;28;20353;-79
2022/06/07 19:51:38;;;;;;;;;;;;;;;;;;12625188;28;19919;-79
2022/06/07 19:57:40;;;;;;;;;;;;;;;;;;12650284;28;19912;-78
2022/06/07 20:03:43;;;;;;;;;;;;;;;;;;12651483;28;19911;-79
2022/06/07 20:09:45;;;;;;;;;;;;;;;;;;12635026;28;19908;-79
2022/06/07 20:15:47;;;;;;;;;;;;;;;;;;12652720;28;20357;-79
2022/06/07 20:21:50;;;;;;;;;;;;;;;;;;12633923;28;20311;-79
2022/06/07 20:27:52;;;;;;;;;;;;;;;;;;12651374;28;19915;-79
2022/06/07 20:33:54;;;;;;;;;;;;;;;;;;12649970;28;19923;-79
2022/06/07 20:39:57;;;;;;;;;;;;;;;;;;12649151;28;20365;-79
2022/06/07 20:45:59;;;;;;;;;;;;;;;;;;12633439;28;20423;-79
2022/06/07 20:52:01;;;;;;;;;;;;;;;;;;12649321;28;19916;-78
2022/06/07 20:58:03;;;;;;;;;;;;;;;;;;12650176;28;20430;-78
2022/06/07 21:04:04;;;;;;;;;;;;;;;;;;12650174;28;20276;-79
2022/06/07 21:10:07;;;;;;;;;;;;;;;;;;12631143;28;19912;-79
2022/06/07 21:16:08;;;;;;;;;;;;;;;;;;12650467;28;20276;-78
2022/06/07 21:22:10;;;;;;;;;;;;;;;;;;12649438;28;19912;-78
2022/06/07 21:28:12;;;;;;;;;;;;;;;;;;12648524;28;20296;-78
2022/06/07 21:34:13;;;;;;;;;;;;;;;;;;12648359;28;19923;-78
2022/06/07 21:40:15;;;;;;;;;;;;;;;;;;12648389;28;19908;-78
2022/06/07 21:46:19;;;;;;;;;;;;;;;;;;12649470;28;19926;-79
2022/06/07 21:52:20;;;;;;;;;;;;;;;;;;12647880;28;19927;-79
2022/06/07 21:58:23;;;;;;;;;;;;;;;;;;12629567;28;19908;-79
2022/06/07 22:04:25;;;;;;;;;;;;;;;;;;12646115;28;19915;-79
2022/06/07 22:10:26;;;;;;;;;;;;;;;;;;12647191;28;19915;-79
2022/06/07 22:16:28;;;;;;;;;;;;;;;;;;12629666;28;19923;-79
2022/06/07 22:22:29;;;;;;;;;;;;;;;;;;12646314;28;20395;-77
2022/06/07 22:34:51;;;;;;;;;;;;;;;;;;12628331;28;19916;-80
2022/06/07 22:40:52;;;;;;;;;;;;;;;;;;12627723;28;19912;-79
2022/06/07 22:46:54;;;;;;;;;;;;;;;;;;12644264;28;19908;-79
2022/06/07 22:52:56;;;;;;;;;;;;;;;;;;12645119;28;19916;-79
2022/06/07 22:58:58;;;;;;;;;;;;;;;;;;12645003;28;19915;-79
2022/06/07 23:04:59;;;;;;;;;;;;;;;;;;12645949;28;19908;-79
2022/06/07 23:11:01;;;;;;;;;;;;;;;;;;12645171;28;19924;-79
2022/06/07 23:17:17;;;;;;;;;;;;;;;;;;12646607;28;19916;-79
2022/06/07 23:23:19;;;;;;;;;;;;;;;;;;12644686;28;19908;-79
2022/06/07 23:29:21;;;;;;;;;;;;;;;;;;12644762;28;19919;-79
2022/06/07 23:35:22;;;;;;;;;;;;;;;;;;12654439;28;20369;-80
2022/06/07 23:41:24;;;;;;;;;;;;;;;;;;12637676;28;19912;-80
2022/06/07 23:47:25;;;;;;;;;;;;;;;;;;12653304;28;19907;-80
2022/06/07 23:53:27;;;;;;;;;;;;;;;;;;12636430;28;19915;-78
2022/06/07 23:59:28;;;;;;;;;;;;;;;;;;12652704;28;19915;-79
